createdAt,value
2019-03-20T00:02:08.469Z,60.87
2019-03-20T00:04:49.693Z,60.86
2019-03-20T00:07:17.103Z,60.75
2019-03-20T00:09:50.521Z,60.71
2019-03-20T00:12:23.906Z,60.75
2019-03-20T00:14:57.403Z,60.85
2019-03-20T00:17:30.794Z,60.86
2019-03-20T00:20:25.958Z,60.66
2019-03-20T00:23:00.205Z,60.97
2019-03-20T00:25:33.585Z,60.95
2019-03-20T00:28:07.069Z,60.94
2019-03-20T00:30:40.505Z,60.92
2019-03-20T00:33:13.965Z,60.81
2019-03-20T00:35:47.387Z,60.87
2019-03-20T00:38:20.885Z,60.79
2019-03-20T00:40:54.322Z,60.87
2019-03-20T00:43:27.769Z,60.91
2019-03-20T00:46:01.093Z,60.94
2019-03-20T00:48:34.478Z,61.00
2019-03-20T00:51:07.926Z,60.97
2019-03-20T00:53:41.342Z,60.98
2019-03-20T00:56:14.739Z,61.08
2019-03-20T00:58:48.130Z,61.01
2019-03-20T01:01:21.715Z,61.03
2019-03-20T01:03:55.082Z,61.07
2019-03-20T01:06:28.508Z,61.16
2019-03-20T01:09:01.954Z,61.19
2019-03-20T01:11:35.338Z,61.16
2019-03-20T01:14:08.767Z,61.10
2019-03-20T01:16:42.127Z,61.08
2019-03-20T01:19:15.558Z,61.10
2019-03-20T01:21:48.867Z,61.09
2019-03-20T01:24:22.294Z,61.15
2019-03-20T01:26:55.644Z,61.14
2019-03-20T01:29:29.039Z,61.20
2019-03-20T01:32:02.459Z,61.34
2019-03-20T01:34:35.949Z,61.32
2019-03-20T01:37:09.342Z,61.34
2019-03-20T01:39:42.777Z,61.29
2019-03-20T01:42:16.159Z,61.27
2019-03-20T01:44:49.573Z,61.24
2019-03-20T01:47:23.025Z,61.30
2019-03-20T01:49:56.443Z,61.38
2019-03-20T01:52:29.865Z,61.28
2019-03-20T01:55:03.332Z,61.29
2019-03-20T01:57:36.718Z,61.33
2019-03-20T02:00:11.432Z,61.35
2019-03-20T02:02:45.018Z,61.38
2019-03-20T02:05:18.509Z,61.39
2019-03-20T02:07:51.913Z,61.33
2019-03-20T02:10:25.415Z,61.40
2019-03-20T02:12:59.029Z,61.41
2019-03-20T02:15:38.705Z,61.58
2019-03-20T02:18:07.642Z,61.49
2019-03-20T02:20:41.160Z,61.55
2019-03-20T02:23:14.483Z,61.53
2019-03-20T02:25:47.848Z,61.51
2019-03-20T02:28:21.195Z,61.40
2019-03-20T02:30:54.542Z,61.31
2019-03-20T02:33:27.887Z,61.26
2019-03-20T02:36:01.424Z,61.38
2019-03-20T02:38:34.856Z,61.50
2019-03-20T02:41:08.272Z,61.65
2019-03-20T02:43:41.687Z,61.59
2019-03-20T02:46:15.130Z,61.76
2019-03-20T02:48:48.581Z,61.69
2019-03-20T02:51:21.941Z,61.75
2019-03-20T02:53:55.409Z,61.54
2019-03-20T02:56:28.884Z,61.72
2019-03-20T02:59:02.389Z,61.63
2019-03-20T03:01:35.806Z,61.62
2019-03-20T03:04:09.232Z,61.86
2019-03-20T03:06:42.649Z,61.69
2019-03-20T03:09:16.062Z,61.61
2019-03-20T03:11:49.522Z,61.62
2019-03-20T03:14:22.963Z,61.57
2019-03-20T03:16:56.381Z,61.83
2019-03-20T03:19:29.839Z,61.79
2019-03-20T03:22:03.425Z,61.80
2019-03-20T03:24:36.736Z,61.68
2019-03-20T03:27:10.172Z,61.76
2019-03-20T03:29:43.598Z,61.76
2019-03-20T03:32:17.016Z,61.73
2019-03-20T03:34:50.364Z,61.88
2019-03-20T03:37:23.796Z,61.91
2019-03-20T03:39:57.178Z,61.94
2019-03-20T03:42:30.680Z,61.91
2019-03-20T03:45:06.664Z,61.92
2019-03-20T03:47:40.209Z,62.03
2019-03-20T03:50:13.710Z,62.04
2019-03-20T03:52:47.060Z,62.03
2019-03-20T03:55:20.408Z,61.90
2019-03-20T03:57:53.934Z,61.88
2019-03-20T04:00:27.272Z,61.89
2019-03-20T04:03:00.688Z,61.83
2019-03-20T04:05:34.140Z,61.96
2019-03-20T04:08:07.582Z,61.80
2019-03-20T04:10:41.061Z,61.93
2019-03-20T04:13:14.477Z,61.93
2019-03-20T04:15:47.868Z,62.03
2019-03-20T04:18:21.302Z,62.04
2019-03-20T04:20:54.637Z,62.03
2019-03-20T04:23:28.119Z,62.04
2019-03-20T04:26:01.495Z,62.12
2019-03-20T04:28:34.905Z,62.02
2019-03-20T04:31:08.305Z,61.94
2019-03-20T04:33:41.846Z,61.89
2019-03-20T04:36:15.184Z,61.74
2019-03-20T04:38:48.634Z,61.67
2019-03-20T04:41:22.031Z,61.83
2019-03-20T04:43:55.388Z,61.84
2019-03-20T04:46:28.807Z,61.69
2019-03-20T04:49:02.215Z,61.89
2019-03-20T04:51:35.578Z,61.84
2019-03-20T04:54:08.909Z,62.03
2019-03-20T04:56:42.269Z,62.02
2019-03-20T04:59:15.601Z,62.14
2019-03-20T05:01:49.033Z,62.28
2019-03-20T05:04:22.432Z,62.33
2019-03-20T05:06:59.167Z,62.35
2019-03-20T05:09:31.753Z,62.35
2019-03-20T05:12:05.177Z,62.42
2019-03-20T05:14:38.561Z,62.53
2019-03-20T05:17:12.046Z,62.50
2019-03-20T05:19:45.404Z,62.44
2019-03-20T05:22:18.821Z,62.34
2019-03-20T05:24:52.146Z,62.32
2019-03-20T05:27:25.580Z,62.29
2019-03-20T05:29:59.000Z,62.37
2019-03-20T05:32:33.373Z,62.30
2019-03-20T05:35:07.840Z,62.25
2019-03-20T05:37:41.327Z,62.26
2019-03-20T05:40:16.017Z,62.18
2019-03-20T05:42:49.452Z,62.10
2019-03-20T05:45:22.853Z,62.06
2019-03-20T05:47:56.245Z,62.03
2019-03-20T05:50:29.628Z,62.09
2019-03-20T05:53:03.071Z,62.27
2019-03-20T05:55:36.533Z,62.23
2019-03-20T05:58:09.953Z,62.17
2019-03-20T06:00:43.355Z,62.08
2019-03-20T06:03:16.778Z,62.18
2019-03-20T06:05:50.220Z,62.22
2019-03-20T06:08:23.718Z,62.27
2019-03-20T06:10:57.246Z,62.34
2019-03-20T06:13:30.636Z,62.28
2019-03-20T06:16:04.132Z,62.41
2019-03-20T06:18:37.573Z,62.35
2019-03-20T06:21:10.976Z,62.31
2019-03-20T06:23:44.399Z,62.43
2019-03-20T06:26:17.862Z,62.35
2019-03-20T06:28:51.230Z,62.22
2019-03-20T06:31:24.616Z,62.15
2019-03-20T06:33:58.013Z,61.94
2019-03-20T06:36:31.412Z,62.00
2019-03-20T06:39:06.933Z,61.89
2019-03-20T06:41:40.278Z,61.68
2019-03-20T06:44:13.745Z,61.41
2019-03-20T06:46:47.242Z,61.38
2019-03-20T06:49:20.647Z,60.28
2019-03-20T06:51:54.144Z,59.80
2019-03-20T06:54:27.576Z,59.51
2019-03-20T06:57:00.951Z,59.01
2019-03-20T06:59:37.577Z,59.09
2019-03-20T07:02:10.879Z,58.77
2019-03-20T07:05:07.352Z,58.36
2019-03-20T07:07:44.266Z,58.11
2019-03-20T07:10:18.922Z,57.79
2019-03-20T07:12:52.459Z,57.31
2019-03-20T07:15:25.800Z,56.79
2019-03-20T07:17:59.303Z,56.53
2019-03-20T07:20:32.721Z,54.87
2019-03-20T07:23:06.123Z,52.09
2019-03-20T07:25:40.114Z,51.09
2019-03-20T07:28:13.547Z,50.07
2019-03-20T07:30:46.974Z,49.89
2019-03-20T07:33:20.549Z,50.50
2019-03-20T07:35:54.026Z,49.24
2019-03-20T07:38:27.525Z,50.24
2019-03-20T07:41:01.016Z,48.84
2019-03-20T07:43:34.462Z,47.45
2019-03-20T07:46:07.896Z,44.96
2019-03-20T07:48:41.254Z,43.55
2019-03-20T07:51:14.578Z,44.81
2019-03-20T07:53:47.938Z,45.76
2019-03-20T07:56:21.443Z,46.17
2019-03-20T07:58:54.826Z,47.29
2019-03-20T08:01:28.167Z,47.78
2019-03-20T08:04:01.538Z,47.63
2019-03-20T08:06:34.925Z,47.01
2019-03-20T08:09:08.423Z,47.70
2019-03-20T08:11:41.785Z,47.58
2019-03-20T08:14:15.475Z,47.72
2019-03-20T08:16:48.866Z,47.99
2019-03-20T08:19:22.238Z,48.92
2019-03-20T08:21:55.571Z,48.85
2019-03-20T08:24:28.959Z,48.96
2019-03-20T08:27:02.310Z,48.25
2019-03-20T08:29:35.814Z,48.27
2019-03-20T08:32:09.147Z,48.69
2019-03-20T08:34:42.520Z,47.75
2019-03-20T08:37:16.034Z,48.21
2019-03-20T08:39:49.533Z,48.26
2019-03-20T08:42:23.043Z,48.41
2019-03-20T08:44:56.546Z,48.46
2019-03-20T08:47:29.983Z,47.14
2019-03-20T08:50:04.278Z,48.18
2019-03-20T08:52:37.722Z,47.72
2019-03-20T08:55:13.578Z,47.28
2019-03-20T08:57:47.117Z,46.39
2019-03-20T09:00:23.792Z,46.35
2019-03-20T09:02:57.200Z,44.76
2019-03-20T09:05:30.640Z,41.80
2019-03-20T09:08:04.159Z,39.51
2019-03-20T09:10:37.595Z,36.30
2019-03-20T09:13:10.993Z,37.31
2019-03-20T09:15:44.477Z,37.97
2019-03-20T09:18:17.954Z,37.88
2019-03-20T09:20:51.432Z,38.33
2019-03-20T09:23:24.842Z,40.00
2019-03-20T09:25:58.375Z,35.66
2019-03-20T09:28:31.726Z,38.70
2019-03-20T09:31:05.329Z,40.08
2019-03-20T09:33:38.818Z,38.30
2019-03-20T09:36:12.145Z,36.25
2019-03-20T09:38:45.506Z,36.07
2019-03-20T09:41:18.962Z,33.92
2019-03-20T09:43:52.401Z,29.78
2019-03-20T09:46:25.833Z,27.94
2019-03-20T09:48:59.400Z,26.88
2019-03-20T09:51:32.757Z,27.92
2019-03-20T09:54:07.689Z,27.95
2019-03-20T09:56:41.078Z,27.31
2019-03-20T09:59:14.519Z,25.98
2019-03-20T10:01:47.879Z,25.85
2019-03-20T10:04:21.383Z,26.42
2019-03-20T10:06:54.956Z,27.00
2019-03-20T10:09:28.377Z,29.29
2019-03-20T10:12:01.794Z,31.29
2019-03-20T10:14:35.253Z,32.75
2019-03-20T10:17:09.102Z,33.60
2019-03-20T10:19:44.565Z,34.29
2019-03-20T10:22:18.098Z,35.06
2019-03-20T10:24:51.463Z,35.11
2019-03-20T10:27:24.926Z,35.86
2019-03-20T10:29:58.359Z,36.42
2019-03-20T10:32:31.681Z,36.41
2019-03-20T10:35:07.995Z,37.11
2019-03-20T10:37:41.423Z,37.76
2019-03-20T10:40:28.676Z,37.83
2019-03-20T10:43:02.181Z,38.69
2019-03-20T10:45:35.709Z,38.53
2019-03-20T10:48:09.059Z,39.23
2019-03-20T10:50:42.566Z,37.92
2019-03-20T10:53:16.032Z,38.14
2019-03-20T10:55:51.775Z,38.05
2019-03-20T10:58:24.635Z,37.69
2019-03-20T11:00:58.242Z,37.81
2019-03-20T11:03:31.631Z,38.69
2019-03-20T11:06:05.364Z,39.00
2019-03-20T11:08:39.009Z,40.22
2019-03-20T11:11:12.411Z,40.11
2019-03-20T11:13:45.793Z,40.03
2019-03-20T11:16:19.336Z,41.22
2019-03-20T11:18:52.682Z,41.08
2019-03-20T11:21:26.119Z,41.26
2019-03-20T11:23:59.518Z,42.55
2019-03-20T11:26:32.977Z,42.54
2019-03-20T11:29:06.613Z,43.04
2019-03-20T11:31:40.182Z,42.49
2019-03-20T11:34:13.584Z,43.11
2019-03-20T11:36:47.081Z,42.85
2019-03-20T11:39:29.150Z,42.85
2019-03-20T11:41:55.776Z,43.33
2019-03-20T11:44:29.129Z,43.29
2019-03-20T11:47:02.527Z,42.75
2019-03-20T11:49:35.991Z,43.45
2019-03-20T11:52:09.389Z,43.82
2019-03-20T11:54:42.955Z,43.86
2019-03-20T11:57:16.489Z,44.15
2019-03-20T11:59:49.981Z,44.23
2019-03-20T12:02:28.032Z,43.94
2019-03-20T12:04:58.599Z,44.28
2019-03-20T12:07:31.964Z,45.35
2019-03-20T12:10:31.019Z,44.72
2019-03-20T12:13:04.629Z,44.88
2019-03-20T12:15:38.028Z,44.79
2019-03-20T12:18:11.498Z,44.85
2019-03-20T12:20:44.811Z,45.11
2019-03-20T12:23:18.298Z,45.66
2019-03-20T12:25:51.706Z,45.11
2019-03-20T12:28:25.184Z,46.13
2019-03-20T12:30:58.542Z,45.52
2019-03-20T12:33:31.993Z,45.51
2019-03-20T12:36:05.431Z,46.04
2019-03-20T12:38:38.879Z,45.63
2019-03-20T12:41:12.273Z,45.13
2019-03-20T12:43:45.724Z,45.48
2019-03-20T12:46:19.172Z,45.90
2019-03-20T12:48:52.651Z,45.61
2019-03-20T12:51:26.221Z,46.22
2019-03-20T12:53:59.650Z,46.21
2019-03-20T12:56:33.115Z,46.05
2019-03-20T12:59:07.683Z,46.00
2019-03-20T13:01:41.059Z,46.56
2019-03-20T13:04:14.504Z,46.48
2019-03-20T13:06:47.888Z,47.00
2019-03-20T13:09:21.267Z,46.97
2019-03-20T13:11:54.697Z,47.48
2019-03-20T13:14:28.295Z,47.64
2019-03-20T13:17:01.665Z,47.50
2019-03-20T13:19:35.186Z,47.19
2019-03-20T13:22:08.567Z,47.78
2019-03-20T13:24:42.009Z,47.28
2019-03-20T13:27:15.494Z,47.80
2019-03-20T13:29:48.952Z,47.89
2019-03-20T13:32:22.437Z,47.51
2019-03-20T13:34:55.912Z,47.57
2019-03-20T13:37:29.336Z,48.10
2019-03-20T13:40:02.749Z,48.48
2019-03-20T13:42:36.228Z,47.83
2019-03-20T13:45:18.587Z,48.25
2019-03-20T13:47:51.941Z,48.29
2019-03-20T13:50:25.427Z,47.82
2019-03-20T13:52:58.941Z,48.33
2019-03-20T13:55:32.428Z,48.57
2019-03-20T13:58:05.839Z,48.81
2019-03-20T14:00:39.268Z,48.72
2019-03-20T14:03:12.714Z,49.04
2019-03-20T14:05:46.265Z,49.28
2019-03-20T14:08:19.731Z,49.44
2019-03-20T14:10:53.119Z,49.28
2019-03-20T14:13:26.526Z,49.55
2019-03-20T14:15:59.947Z,50.06
2019-03-20T14:18:33.371Z,49.88
2019-03-20T14:21:07.057Z,49.90
2019-03-20T14:23:40.491Z,49.68
2019-03-20T14:26:13.903Z,49.91
2019-03-20T14:28:47.272Z,50.42
2019-03-20T14:31:20.796Z,50.60
2019-03-20T14:33:54.281Z,50.88
2019-03-20T14:36:27.697Z,51.17
2019-03-20T14:39:01.031Z,51.34
2019-03-20T14:41:34.984Z,50.93
2019-03-20T14:44:08.385Z,51.39
2019-03-20T14:46:41.828Z,51.16
2019-03-20T14:49:15.248Z,51.05
2019-03-20T14:51:48.770Z,51.31
2019-03-20T14:54:22.176Z,51.44
2019-03-20T14:56:55.674Z,51.40
2019-03-20T14:59:29.140Z,51.34
2019-03-20T15:02:02.536Z,51.48
2019-03-20T15:04:35.932Z,51.52
2019-03-20T15:07:09.393Z,51.54
2019-03-20T15:09:42.856Z,51.69
2019-03-20T15:12:16.290Z,52.27
2019-03-20T15:14:49.733Z,52.49
2019-03-20T15:17:23.172Z,52.20
2019-03-20T15:19:56.514Z,52.27
2019-03-20T15:22:30.075Z,51.78
2019-03-20T15:25:03.617Z,52.18
2019-03-20T15:27:37.120Z,52.51
2019-03-20T15:30:40.179Z,52.59
2019-03-20T15:33:13.505Z,51.94
2019-03-20T15:35:46.927Z,52.65
2019-03-20T15:38:20.312Z,52.96
2019-03-20T15:40:56.409Z,52.81
2019-03-20T15:43:28.833Z,52.80
2019-03-20T15:46:02.328Z,52.55
2019-03-20T15:48:35.654Z,52.71
2019-03-20T15:51:09.268Z,52.68
2019-03-20T15:53:42.614Z,52.62
2019-03-20T15:56:16.039Z,52.68
2019-03-20T15:58:49.377Z,53.09
2019-03-20T16:01:22.727Z,53.12
2019-03-20T16:03:56.156Z,53.13
2019-03-20T16:06:29.652Z,52.96
2019-03-20T16:09:04.454Z,53.11
2019-03-20T16:11:37.874Z,53.32
2019-03-20T16:14:11.269Z,53.22
2019-03-20T16:16:44.661Z,53.33
2019-03-20T16:19:18.040Z,53.15
2019-03-20T16:21:51.514Z,53.14
2019-03-20T16:24:24.924Z,53.24
2019-03-20T16:26:58.371Z,53.46
2019-03-20T16:29:31.930Z,53.44
2019-03-20T16:32:05.434Z,53.63
2019-03-20T16:34:38.868Z,53.66
2019-03-20T16:37:12.461Z,54.28
2019-03-20T16:39:45.891Z,54.34
2019-03-20T16:42:19.419Z,54.18
2019-03-20T16:44:52.767Z,54.17
2019-03-20T16:47:26.233Z,54.29
2019-03-20T16:49:59.651Z,54.51
2019-03-20T16:52:33.076Z,54.45
2019-03-20T16:55:09.422Z,54.44
2019-03-20T16:57:42.975Z,54.52
2019-03-20T17:00:25.173Z,54.42
2019-03-20T17:02:58.771Z,54.46
2019-03-20T17:05:32.179Z,54.33
2019-03-20T17:08:05.582Z,54.31
2019-03-20T17:10:40.621Z,54.74
2019-03-20T17:13:14.141Z,54.57
2019-03-20T17:15:47.536Z,54.68
2019-03-20T17:18:20.921Z,54.66
2019-03-20T17:20:54.393Z,54.73
2019-03-20T17:23:27.828Z,54.59
2019-03-20T17:26:01.171Z,54.63
2019-03-20T17:28:34.672Z,55.00
2019-03-20T17:31:08.097Z,55.06
2019-03-20T17:33:41.561Z,54.90
2019-03-20T17:36:14.938Z,54.73
2019-03-20T17:38:48.394Z,54.43
2019-03-20T17:41:21.762Z,54.55
2019-03-20T17:43:55.214Z,54.42
2019-03-20T17:46:28.666Z,54.50
2019-03-20T17:49:02.104Z,54.67
2019-03-20T17:51:35.523Z,54.60
2019-03-20T17:54:09.064Z,54.53
2019-03-20T17:56:42.419Z,54.57
2019-03-20T17:59:15.863Z,54.49
2019-03-20T18:01:49.203Z,54.57
2019-03-20T18:04:22.657Z,54.54
2019-03-20T18:06:56.150Z,54.52
2019-03-20T18:09:29.758Z,54.48
2019-03-20T18:12:03.450Z,54.43
2019-03-20T18:14:36.854Z,54.46
2019-03-20T18:17:10.278Z,54.53
2019-03-20T18:19:43.753Z,54.48
2019-03-20T18:22:17.347Z,54.73
2019-03-20T18:24:50.800Z,54.66
2019-03-20T18:27:24.301Z,54.38
2019-03-20T18:29:57.765Z,54.61
2019-03-20T18:32:31.147Z,54.76
2019-03-20T18:35:06.578Z,54.73
2019-03-20T18:37:39.952Z,54.78
2019-03-20T18:40:16.490Z,54.75
2019-03-20T18:42:49.965Z,55.04
2019-03-20T18:45:24.445Z,54.89
2019-03-20T18:47:57.952Z,54.81
2019-03-20T18:50:31.367Z,54.76
2019-03-20T18:53:04.909Z,54.67
2019-03-20T18:55:38.833Z,54.75
2019-03-20T18:58:12.313Z,54.85
2019-03-20T19:00:45.850Z,54.95
2019-03-20T19:03:22.468Z,54.97
2019-03-20T19:06:07.591Z,55.07
2019-03-20T19:08:42.639Z,54.96
2019-03-20T19:11:16.107Z,54.84
2019-03-20T19:13:49.609Z,55.24
2019-03-20T19:16:22.988Z,55.10
2019-03-20T19:18:56.472Z,55.01
2019-03-20T19:21:29.955Z,55.07
2019-03-20T19:24:04.876Z,55.01
2019-03-20T19:26:38.210Z,55.03
2019-03-20T19:29:11.747Z,55.16
2019-03-20T19:31:45.103Z,54.98
2019-03-20T19:34:18.549Z,55.02
2019-03-20T19:36:51.886Z,54.94
2019-03-20T19:39:25.376Z,55.15
2019-03-20T19:41:58.895Z,55.26
2019-03-20T19:44:32.408Z,55.21
2019-03-20T19:47:05.809Z,55.13
2019-03-20T19:49:39.276Z,55.00
2019-03-20T19:52:12.683Z,54.98
2019-03-20T19:54:46.085Z,54.94
2019-03-20T19:57:19.573Z,55.17
2019-03-20T19:59:53.197Z,55.19
2019-03-20T20:02:26.538Z,55.13
2019-03-20T20:05:00.062Z,55.19
2019-03-20T20:07:33.504Z,55.15
2019-03-20T20:10:09.622Z,55.06
2019-03-20T20:12:43.162Z,55.07
2019-03-20T20:15:22.180Z,55.26
2019-03-20T20:17:55.721Z,55.19
2019-03-20T20:20:34.600Z,55.12
2019-03-20T20:23:08.021Z,55.24
2019-03-20T20:25:41.675Z,55.17
2019-03-20T20:28:15.029Z,55.21
2019-03-20T20:30:48.493Z,55.15
2019-03-20T20:33:21.935Z,55.16
2019-03-20T20:35:55.288Z,55.21
2019-03-20T20:38:28.706Z,55.24
2019-03-20T20:41:02.070Z,55.25
2019-03-20T20:43:35.543Z,55.28
2019-03-20T20:46:08.916Z,55.26
2019-03-20T20:48:42.311Z,55.02
2019-03-20T20:51:15.680Z,55.46
2019-03-20T20:53:49.374Z,55.63
2019-03-20T20:56:22.911Z,55.66
2019-03-20T20:58:56.380Z,55.66
2019-03-20T21:01:30.238Z,55.55
2019-03-20T21:04:03.817Z,55.52
2019-03-20T21:06:37.337Z,55.58
2019-03-20T21:09:10.745Z,55.54
2019-03-20T21:11:44.191Z,55.78
2019-03-20T21:14:17.540Z,55.77
2019-03-20T21:16:50.980Z,55.64
2019-03-20T21:19:34.617Z,55.72
2019-03-20T21:22:45.818Z,55.81
2019-03-20T21:25:19.255Z,55.82
2019-03-20T21:28:17.146Z,55.83
2019-03-20T21:30:53.960Z,55.91
2019-03-20T21:33:45.148Z,55.94
2019-03-20T21:36:54.625Z,56.03
2019-03-20T21:39:28.156Z,55.98
2019-03-20T21:42:16.896Z,55.92
2019-03-20T21:45:08.783Z,55.93
2019-03-20T21:47:42.149Z,55.94
2019-03-20T21:50:42.654Z,55.89
2019-03-20T21:53:50.893Z,56.09
2019-03-20T21:56:42.567Z,56.06
2019-03-20T21:59:35.423Z,55.98
2019-03-20T22:02:47.499Z,56.01
2019-03-20T22:05:49.657Z,56.34
2019-03-20T22:08:23.091Z,56.33
2019-03-20T22:11:05.032Z,56.60
2019-03-20T22:13:44.397Z,56.57
2019-03-20T22:16:25.917Z,56.52
2019-03-20T22:19:24.790Z,56.59
2019-03-20T22:22:28.505Z,56.79
2019-03-20T22:25:25.849Z,56.63
2019-03-20T22:28:31.357Z,56.61
2019-03-20T22:31:04.730Z,56.63
2019-03-20T22:34:14.424Z,56.74
2019-03-20T22:36:47.795Z,56.91
2019-03-20T22:39:39.530Z,57.26
2019-03-20T22:42:18.586Z,57.57
2019-03-20T22:45:06.714Z,57.52
2019-03-20T22:47:59.479Z,57.60
2019-03-20T22:50:50.990Z,57.71
2019-03-20T22:53:30.381Z,57.73
2019-03-20T22:56:09.421Z,58.10
2019-03-20T22:58:41.973Z,58.11
2019-03-20T23:01:18.893Z,58.30
2019-03-20T23:04:00.985Z,58.61
2019-03-20T23:06:34.461Z,58.38
2019-03-20T23:09:08.851Z,58.20
2019-03-20T23:11:42.393Z,58.24
2019-03-20T23:14:15.846Z,58.41
2019-03-20T23:16:49.210Z,58.45
2019-03-20T23:19:22.641Z,58.37
2019-03-20T23:21:56.114Z,58.48
2019-03-20T23:24:29.593Z,58.51
2019-03-20T23:27:06.124Z,58.68
2019-03-20T23:29:39.562Z,58.69
2019-03-20T23:32:12.999Z,58.71
2019-03-20T23:34:46.366Z,58.72
2019-03-20T23:37:19.804Z,58.77
2019-03-20T23:39:53.321Z,58.84
2019-03-20T23:42:26.760Z,58.88
2019-03-20T23:45:00.181Z,58.76
2019-03-20T23:47:37.142Z,58.81
2019-03-20T23:50:11.814Z,58.75
2019-03-20T23:52:45.261Z,58.64
2019-03-20T23:55:18.742Z,58.75
2019-03-20T23:57:52.203Z,58.95
